createdAt,value
2024-01-25T00:03:03.126Z,37.21
2024-01-25T00:08:05.439Z,37.01
2024-01-25T00:13:07.515Z,37.36
2024-01-25T00:18:09.627Z,37.45
2024-01-25T00:23:12.342Z,37.34
2024-01-25T00:28:14.589Z,37.41
2024-01-25T00:33:16.951Z,37.25
2024-01-25T00:38:19.240Z,37.28
2024-01-25T00:43:21.603Z,37.12
2024-01-25T00:48:24.137Z,37.02
2024-01-25T00:53:26.658Z,36.99
2024-01-25T00:58:28.919Z,37.08
2024-01-25T01:03:31.539Z,37.19
2024-01-25T01:08:34.326Z,37.10
2024-01-25T01:13:36.369Z,36.81
2024-01-25T01:18:39.883Z,37.00
2024-01-25T01:23:42.255Z,37.01
2024-01-25T01:28:44.621Z,37.12
2024-01-25T01:33:47.760Z,37.14
2024-01-25T01:38:50.033Z,37.12
2024-01-25T01:43:55.548Z,37.11
2024-01-25T01:48:57.855Z,37.16
2024-01-25T01:54:02.092Z,37.31
2024-01-25T01:59:06.618Z,37.01
2024-01-25T02:04:08.805Z,36.92
2024-01-25T02:09:11.183Z,37.13
2024-01-25T02:14:14.237Z,37.18
2024-01-25T02:19:16.255Z,37.04
2024-01-25T02:24:18.448Z,37.01
2024-01-25T02:29:20.862Z,37.14
2024-01-25T02:34:23.022Z,37.20
2024-01-25T02:39:25.183Z,37.32
2024-01-25T02:44:27.248Z,37.20
2024-01-25T02:49:29.511Z,37.33
2024-01-25T02:54:31.764Z,37.56
2024-01-25T02:59:34.334Z,37.42
2024-01-25T03:04:36.459Z,37.41
2024-01-25T03:09:38.697Z,37.54
2024-01-25T03:14:40.879Z,37.38
2024-01-25T03:19:42.972Z,37.38
2024-01-25T03:24:45.084Z,37.35
2024-01-25T03:29:47.158Z,37.65
2024-01-25T03:34:49.257Z,37.65
2024-01-25T03:39:51.366Z,37.33
2024-01-25T03:44:53.630Z,37.43
2024-01-25T03:49:56.056Z,37.39
2024-01-25T03:54:59.448Z,37.42
2024-01-25T04:00:01.377Z,37.40
2024-01-25T04:05:08.009Z,37.30
2024-01-25T04:10:10.188Z,37.27
2024-01-25T04:15:12.277Z,37.46
2024-01-25T04:20:16.094Z,37.45
2024-01-25T04:25:18.350Z,37.59
2024-01-25T04:30:20.667Z,37.32
2024-01-25T04:35:22.793Z,37.36
2024-01-25T04:40:25.285Z,37.71
2024-01-25T04:45:27.400Z,37.66
2024-01-25T04:50:29.719Z,37.37
2024-01-25T04:55:31.901Z,37.36
2024-01-25T05:00:34.931Z,37.41
2024-01-25T05:05:37.065Z,37.53
2024-01-25T05:10:39.242Z,37.53
2024-01-25T05:15:41.626Z,37.41
2024-01-25T05:20:43.693Z,37.43
2024-01-25T05:25:45.644Z,37.43
2024-01-25T05:30:47.723Z,37.60
2024-01-25T05:35:49.985Z,37.54
2024-01-25T05:40:51.975Z,37.43
2024-01-25T05:45:53.998Z,37.40
2024-01-25T05:50:56.091Z,37.61
2024-01-25T05:55:58.126Z,37.78
2024-01-25T06:01:00.390Z,38.49
2024-01-25T06:06:02.597Z,38.20
2024-01-25T06:11:04.994Z,38.60
2024-01-25T06:16:07.190Z,39.27
2024-01-25T06:21:09.272Z,39.63
2024-01-25T06:26:11.533Z,39.80
2024-01-25T06:31:14.653Z,39.71
2024-01-25T06:36:20.902Z,41.93
2024-01-25T06:41:23.055Z,41.38
2024-01-25T06:46:25.201Z,41.34
2024-01-25T06:51:27.471Z,41.05
2024-01-25T06:56:29.596Z,41.31
2024-01-25T07:01:32.162Z,41.18
2024-01-25T07:06:35.293Z,41.74
2024-01-25T07:11:37.407Z,41.49
2024-01-25T07:16:39.702Z,41.44
2024-01-25T07:21:42.154Z,41.27
2024-01-25T07:26:44.231Z,41.29
2024-01-25T07:31:46.220Z,40.94
2024-01-25T07:36:48.349Z,40.93
2024-01-25T07:41:50.471Z,41.08
2024-01-25T07:46:53.149Z,40.85
2024-01-25T07:51:57.111Z,40.94
2024-01-25T07:56:59.069Z,40.57
2024-01-25T08:02:01.458Z,40.62
2024-01-25T08:07:03.869Z,40.48
2024-01-25T08:12:06.601Z,40.46
2024-01-25T08:17:08.737Z,40.55
2024-01-25T08:22:11.319Z,40.33
2024-01-25T08:27:16.192Z,40.25
2024-01-25T08:32:18.562Z,39.87
2024-01-25T08:37:20.672Z,39.74
2024-01-25T08:42:22.973Z,39.43
2024-01-25T08:47:24.952Z,39.19
2024-01-25T08:52:27.101Z,39.06
2024-01-25T08:57:29.355Z,38.83
2024-01-25T09:02:33.845Z,38.65
2024-01-25T09:07:36.452Z,38.48
2024-01-25T09:12:38.868Z,38.42
2024-01-25T09:17:41.124Z,38.29
2024-01-25T09:22:43.687Z,38.20
2024-01-25T09:27:45.769Z,37.99
2024-01-25T09:32:48.238Z,38.13
2024-01-25T09:37:53.682Z,38.04
2024-01-25T09:42:56.683Z,37.63
2024-01-25T09:47:59.607Z,37.44
2024-01-25T09:53:02.032Z,37.78
2024-01-25T09:58:09.055Z,37.45
2024-01-25T10:03:11.212Z,37.36
2024-01-25T10:08:16.393Z,37.29
2024-01-25T10:13:18.517Z,37.09
2024-01-25T10:18:28.695Z,37.30
2024-01-25T10:23:32.468Z,37.34
2024-01-25T10:28:34.773Z,37.49
2024-01-25T10:33:39.080Z,37.25
2024-01-25T10:38:43.571Z,37.38
2024-01-25T10:43:45.556Z,37.35
2024-01-25T10:48:48.086Z,37.03
2024-01-25T10:53:50.604Z,36.36
2024-01-25T10:58:52.849Z,35.84
2024-01-25T11:03:55.518Z,35.33
2024-01-25T11:09:07.160Z,35.33
2024-01-25T11:14:14.728Z,34.54
2024-01-25T11:19:22.060Z,34.36
2024-01-25T11:24:27.563Z,33.76
2024-01-25T11:29:29.995Z,33.56
2024-01-25T11:34:33.045Z,33.69
2024-01-25T11:39:35.327Z,33.42
2024-01-25T11:44:37.388Z,33.77
2024-01-25T11:49:40.865Z,33.86
2024-01-25T11:54:42.944Z,33.38
2024-01-25T11:59:47.063Z,33.35
2024-01-25T12:04:49.473Z,33.53
2024-01-25T12:10:01.447Z,32.78
2024-01-25T12:15:06.391Z,32.85
2024-01-25T12:20:12.705Z,33.05
2024-01-25T12:25:15.841Z,33.15
2024-01-25T12:30:17.955Z,32.52
2024-01-25T12:35:20.705Z,32.90
2024-01-25T12:40:22.989Z,32.69
2024-01-25T12:45:25.033Z,32.45
2024-01-25T12:50:27.061Z,32.36
2024-01-25T12:55:30.333Z,32.25
2024-01-25T13:00:32.729Z,33.06
2024-01-25T13:05:35.752Z,32.46
2024-01-25T13:10:39.867Z,33.33
2024-01-25T13:15:42.112Z,32.43
2024-01-25T13:20:44.275Z,32.38
2024-01-25T13:25:46.254Z,32.35
2024-01-25T13:30:48.333Z,32.63
2024-01-25T13:35:50.420Z,32.39
2024-01-25T13:40:52.710Z,32.81
2024-01-25T13:45:55.940Z,32.20
2024-01-25T13:50:58.190Z,32.55
2024-01-25T13:56:00.461Z,32.39
2024-01-25T14:01:02.637Z,32.16
2024-01-25T14:06:06.011Z,32.54
2024-01-25T14:11:08.585Z,32.88
2024-01-25T14:16:11.100Z,33.46
2024-01-25T14:21:14.053Z,33.81
2024-01-25T14:26:17.344Z,34.08
2024-01-25T14:31:19.865Z,34.31
2024-01-25T14:36:21.900Z,34.68
2024-01-25T14:41:24.040Z,34.85
2024-01-25T14:46:26.401Z,34.85
2024-01-25T14:51:28.529Z,34.77
2024-01-25T14:56:30.609Z,35.05
2024-01-25T15:01:32.869Z,35.14
2024-01-25T15:06:35.072Z,35.23
2024-01-25T15:11:37.472Z,35.34
2024-01-25T15:16:40.313Z,35.41
2024-01-25T15:21:42.374Z,35.50
2024-01-25T15:26:44.974Z,35.55
2024-01-25T15:31:47.006Z,35.62
2024-01-25T15:36:49.362Z,35.69
2024-01-25T15:41:53.441Z,35.67
2024-01-25T15:46:55.544Z,35.91
2024-01-25T15:51:57.572Z,35.85
2024-01-25T15:56:59.661Z,35.90
2024-01-25T16:02:01.608Z,35.99
2024-01-25T16:07:06.629Z,36.03
2024-01-25T16:12:09.675Z,36.08
2024-01-25T16:17:15.553Z,35.99
2024-01-25T16:22:17.601Z,35.86
2024-01-25T16:27:19.640Z,36.06
2024-01-25T16:32:22.015Z,35.96
2024-01-25T16:37:24.084Z,36.11
2024-01-25T16:42:26.119Z,36.24
2024-01-25T16:47:28.234Z,35.90
2024-01-25T16:52:30.330Z,36.12
2024-01-25T16:57:32.344Z,36.06
2024-01-25T17:02:34.515Z,36.05
2024-01-25T17:07:36.648Z,36.14
2024-01-25T17:12:38.723Z,36.37
2024-01-25T17:17:41.490Z,36.16
2024-01-25T17:22:43.568Z,36.26
2024-01-25T17:27:45.711Z,36.14
2024-01-25T17:32:49.084Z,36.31
2024-01-25T17:37:51.306Z,36.22
2024-01-25T17:42:53.426Z,36.17
2024-01-25T17:47:57.021Z,36.33
2024-01-25T17:52:59.054Z,36.30
2024-01-25T17:58:01.773Z,36.28
2024-01-25T18:03:04.351Z,36.12
2024-01-25T18:08:06.918Z,36.28
2024-01-25T18:13:09.063Z,36.35
2024-01-25T18:18:11.299Z,36.24
2024-01-25T18:23:13.401Z,36.16
2024-01-25T18:28:15.778Z,36.49
2024-01-25T18:33:17.942Z,36.27
2024-01-25T18:38:20.130Z,36.40
2024-01-25T18:43:24.167Z,36.37
2024-01-25T18:48:26.313Z,36.38
2024-01-25T18:53:28.513Z,36.36
2024-01-25T18:58:31.680Z,36.37
2024-01-25T19:03:34.138Z,36.47
2024-01-25T19:08:36.565Z,36.58
2024-01-25T19:13:38.615Z,36.14
2024-01-25T19:18:40.983Z,36.37
2024-01-25T19:23:43.133Z,36.45
2024-01-25T19:28:45.821Z,36.35
2024-01-25T19:33:48.237Z,36.42
2024-01-25T19:38:50.408Z,36.53
2024-01-25T19:43:52.456Z,36.53
2024-01-25T19:48:54.856Z,36.53
2024-01-25T19:53:57.202Z,36.57
2024-01-25T19:59:02.375Z,36.57
2024-01-25T20:04:04.849Z,36.70
2024-01-25T20:09:07.651Z,36.62
2024-01-25T20:14:09.754Z,36.75
2024-01-25T20:19:12.021Z,36.73
2024-01-25T20:24:14.160Z,36.83
2024-01-25T20:29:17.562Z,36.77
2024-01-25T20:34:20.665Z,36.78
2024-01-25T20:39:23.027Z,36.79
2024-01-25T20:44:25.233Z,36.71
2024-01-25T20:49:27.328Z,36.96
2024-01-25T20:54:31.226Z,36.73
2024-01-25T20:59:33.255Z,36.86
2024-01-25T21:04:35.636Z,36.88
2024-01-25T21:09:38.155Z,36.82
2024-01-25T21:14:40.723Z,36.78
2024-01-25T21:19:42.892Z,36.81
2024-01-25T21:24:45.076Z,36.81
2024-01-25T21:29:47.130Z,36.83
2024-01-25T21:34:49.568Z,36.95
2024-01-25T21:39:51.794Z,36.93
2024-01-25T21:44:54.334Z,36.90
2024-01-25T21:49:56.765Z,37.01
2024-01-25T21:54:59.379Z,37.02
2024-01-25T22:00:01.896Z,37.02
2024-01-25T22:05:06.795Z,37.04
2024-01-25T22:10:09.294Z,37.30
2024-01-25T22:15:11.966Z,37.38
2024-01-25T22:20:15.104Z,37.33
2024-01-25T22:25:17.518Z,37.52
2024-01-25T22:30:20.496Z,37.68
2024-01-25T22:35:22.748Z,37.65
2024-01-25T22:40:24.812Z,37.48
2024-01-25T22:45:26.913Z,37.72
2024-01-25T22:50:28.985Z,37.96
2024-01-25T22:55:31.005Z,37.97
2024-01-25T23:00:34.475Z,37.80
2024-01-25T23:05:36.690Z,37.83
2024-01-25T23:10:39.149Z,37.89
2024-01-25T23:15:41.252Z,37.85
2024-01-25T23:20:43.590Z,37.90
2024-01-25T23:25:48.006Z,37.90
2024-01-25T23:30:50.475Z,37.97
2024-01-25T23:35:52.569Z,37.92
2024-01-25T23:40:54.605Z,37.90
2024-01-25T23:45:57.936Z,37.89
2024-01-25T23:50:59.967Z,37.96
2024-01-25T23:56:02.110Z,37.90
